.
WxDataArchive / Data Records for 2008-02-11
2008-02-10 February 2008 2008-02-12

Data Records for Monday, 11 February 2008

Time	Temp	Chill	HIndex	Humid	Dewpt	 Wind 	HiWind	WindDir	Rain 	Barom 
-----	----	-----	------	-----	-----	------	------	-------	-----	----- 
00:00	2.2	2.2	2.2	58	-9.1	2	6	270	0.00	30.433 
00:05	2.2	2.2	2.2	58	-9.1	1	4	270	0.00	30.436 
00:10	2.2	2.2	2.2	58	-9.1	3	9	270	0.00	30.434 
00:15	2.2	2.2	2.2	58	-9.1	2	7	248	0.00	30.433 
00:20	2.0	2.0	2.0	58	-9.3	1	6	248	0.00	30.434 
00:25	2.0	2.0	2.0	59	-9.0	1	4	248	0.00	30.435 
00:30	2.0	2.0	2.0	59	-9.0	2	6	248	0.00	30.435 
00:35	2.0	2.0	2.0	59	-9.0	2	5	270	0.00	30.434 
00:40	2.0	2.0	2.0	59	-9.0	1	5	248	0.00	30.439 
00:45	2.0	2.0	2.0	60	-8.6	1	6	270	0.00	30.441 
00:50	2.0	2.0	2.0	59	-9.0	2	5	248	0.00	30.439 
00:55	2.0	2.0	2.0	60	-8.6	1	8	248	0.00	30.442 
01:00	2.0	2.0	2.0	60	-8.6	1	5	270	0.00	30.442 
01:05	1.8	1.8	1.8	60	-8.8	2	7	248	0.00	30.443 
01:10	1.8	1.8	1.8	60	-8.8	2	4	270	0.00	30.444 
01:15	1.8	1.8	1.8	60	-8.8	2	4	248	0.00	30.444 
01:20	1.8	1.8	1.8	61	-8.5	1	4	248	0.00	30.446 
01:25	1.8	1.8	1.8	61	-8.5	1	4	248	0.00	30.441 
01:30	1.7	1.7	1.7	61	-8.6	1	5	248	0.00	30.435 
01:35	1.7	1.7	1.7	60	-8.9	1	3	248	0.00	30.434 
01:40	1.8	1.8	1.8	60	-8.8	2	5	248	0.00	30.438 
01:45	1.8	1.8	1.8	60	-8.8	1	5	248	0.00	30.438 
01:50	1.8	1.8	1.8	60	-8.8	1	3	248	0.00	30.436 
01:55	1.8	1.8	1.8	60	-8.8	1	6	248	0.00	30.434 
02:00	1.8	1.8	1.8	61	-8.5	1	4	248	0.00	30.433 
02:05	1.8	1.8	1.8	60	-8.8	1	6	248	0.00	30.432 
02:10	1.8	1.8	1.8	61	-8.5	1	4	248	0.00	30.433 
02:15	1.8	1.8	1.8	61	-8.5	1	5	270	0.00	30.433 
02:20	1.8	1.8	1.8	61	-8.5	1	5	248	0.00	30.433 
02:25	1.8	1.8	1.8	61	-8.5	1	3	248	0.00	30.433 
02:30	1.8	1.8	1.8	61	-8.5	1	5	248	0.00	30.435 
02:35	1.8	1.8	1.8	61	-8.5	1	3	248	0.00	30.438 
02:40	2.0	2.0	2.0	61	-8.3	1	4	270	0.00	30.442 
02:45	2.0	2.0	2.0	61	-8.3	2	6	248	0.00	30.441 
02:50	2.0	2.0	2.0	61	-8.3	1	5	270	0.00	30.444 
02:55	2.0	2.0	2.0	61	-8.3	2	7	248	0.00	30.443 
03:00	2.0	2.0	2.0	62	-8.0	2	6	248	0.00	30.446 
03:05	2.0	2.0	2.0	62	-8.0	1	6	248	0.00	30.445 
03:10	2.0	2.0	2.0	62	-8.0	1	4	248	0.00	30.448 
03:15	2.0	2.0	2.0	62	-8.0	1	5	248	0.00	30.449 
03:20	2.0	2.0	2.0	62	-8.0	2	7	248	0.00	30.448 
03:25	2.0	2.0	2.0	62	-8.0	1	5	248	0.00	30.448 
03:30	2.0	2.0	2.0	62	-8.0	2	9	248	0.00	30.448 
03:35	2.0	2.0	2.0	62	-8.0	1	9	248	0.00	30.448 
03:40	2.0	2.0	2.0	62	-8.0	1	3	248	0.00	30.448 
03:45	2.0	2.0	2.0	62	-8.0	1	5	248	0.00	30.447 
03:50	2.0	2.0	2.0	62	-8.0	1	5	248	0.00	30.448 
03:55	2.2	2.2	2.2	62	-7.8	2	7	248	0.00	30.449 
04:00	2.2	2.2	2.2	62	-7.8	2	5	248	0.00	30.444 
04:05	2.2	2.2	2.2	62	-7.8	1	4	248	0.00	30.445 
04:10	2.2	2.2	2.2	62	-7.8	2	7	248	0.00	30.446 
04:15	2.2	2.2	2.2	62	-7.8	0	4	248	0.00	30.446 
04:20	2.2	2.2	2.2	62	-7.8	1	4	248	0.00	30.448 
04:25	2.2	2.2	2.2	62	-7.8	2	6	248	0.00	30.448 
04:30	2.4	2.4	2.4	62	-7.6	0	2	248	0.00	30.445 
04:35	2.4	2.4	2.4	62	-7.6	1	3	248	0.00	30.446 
04:40	2.4	2.4	2.4	63	-7.3	1	7	248	0.00	30.447 
04:45	2.4	2.4	2.4	62	-7.6	2	7	248	0.00	30.449 
04:50	2.4	2.4	2.4	62	-7.6	1	6	248	0.00	30.449 
04:55	2.4	2.4	2.4	62	-7.6	1	4	248	0.00	30.448 
05:00	2.6	2.6	2.6	62	-7.4	1	5	248	0.00	30.449 
05:05	2.6	2.6	2.6	62	-7.4	1	5	248	0.00	30.449 
05:10	2.6	2.6	2.6	62	-7.4	1	5	248	0.00	30.451 
05:15	2.8	2.8	2.8	62	-7.2	0	2	248	0.00	30.452 
05:20	2.8	2.8	2.8	63	-6.9	0	2	248	0.00	30.457 
05:25	2.8	2.8	2.8	62	-7.2	1	7	248	0.00	30.458 
05:30	3.0	3.0	3.0	62	-7.0	1	5	248	0.00	30.461 
05:35	3.0	3.0	3.0	62	-7.0	2	5	248	0.00	30.459 
05:40	2.8	2.8	2.8	62	-7.2	2	9	248	0.00	30.461 
05:45	2.8	2.8	2.8	62	-7.2	1	7	248	0.00	30.461 
05:50	2.8	2.8	2.8	62	-7.2	1	3	248	0.00	30.464 
05:55	2.8	2.8	2.8	62	-7.2	1	3	248	0.00	30.464 
06:00	2.8	2.8	2.8	62	-7.2	1	6	270	0.00	30.461 
06:05	2.8	2.8	2.8	62	-7.2	1	3	248	0.00	30.465 
06:10	2.8	2.8	2.8	62	-7.2	1	5	248	0.00	30.467 
06:15	2.8	2.8	2.8	62	-7.2	2	6	248	0.00	30.468 
06:20	2.8	2.8	2.8	62	-7.2	1	3	248	0.00	30.471 
06:25	2.8	2.8	2.8	62	-7.2	0	3	248	0.00	30.467 
06:30	3.0	3.0	3.0	63	-6.7	1	3	248	0.00	30.474 
06:35	3.0	3.0	3.0	62	-7.0	1	3	248	0.00	30.476 
06:40	3.0	3.0	3.0	63	-6.7	0	2	248	0.00	30.479 
06:45	3.2	3.2	3.2	63	-6.5	1	4	248	0.00	30.479 
06:50	3.2	3.2	3.2	63	-6.5	0	2	248	0.00	30.481 
06:55	3.2	3.2	3.2	63	-6.5	1	4	248	0.00	30.482 
07:00	3.2	3.2	3.2	63	-6.5	1	5	248	0.00	30.477 
07:05	3.2	3.2	3.2	63	-6.5	1	5	248	0.00	30.476 
07:10	3.4	3.4	3.4	63	-6.3	1	6	248	0.00	30.473 
07:15	3.4	3.4	3.4	62	-6.7	1	4	248	0.00	30.470 
07:20	3.4	3.4	3.4	62	-6.7	0	3	248	0.00	30.472 
07:25	3.5	3.5	3.5	62	-6.6	1	4	248	0.00	30.472 
07:30	3.5	3.5	3.5	63	-6.2	0	2	270	0.00	30.473 
07:35	3.5	3.5	3.5	62	-6.6	1	3	248	0.00	30.469 
07:40	3.7	3.7	3.7	63	-6.0	0	3	248	0.00	30.474 
07:45	3.7	3.7	3.7	63	-6.0	1	3	248	0.00	30.475 
07:50	3.7	3.7	3.7	63	-6.0	1	3	248	0.00	30.474 
07:55	3.7	3.7	3.7	63	-6.0	1	3	248	0.00	30.472 
08:00	3.7	3.7	3.7	63	-6.0	0	2	248	0.00	30.470 
08:05	3.9	3.9	3.9	62	-6.2	1	5	248	0.00	30.470 
08:10	3.9	3.9	3.9	62	-6.2	1	4	248	0.00	30.469 
08:15	4.1	4.1	4.1	62	-6.0	1	4	248	0.00	30.471 
08:20	4.3	4.3	4.3	62	-5.8	0	2	248	0.00	30.475 
08:25	4.5	4.5	4.5	62	-5.6	0	4	248	0.00	30.476 
08:30	4.7	4.7	4.7	62	-5.4	0	2	248	0.00	30.479 
08:35	4.7	4.7	4.7	62	-5.4	1	4	248	0.00	30.480 
08:40	4.8	4.8	4.8	62	-5.3	0	3	248	0.00	30.479 
08:45	5.0	5.0	5.0	62	-5.1	0	2	270	0.00	30.479 
08:50	5.2	5.2	5.2	62	-4.9	1	4	248	0.00	30.479 
08:55	5.4	5.4	5.4	61	-5.1	0	2	248	0.00	30.473 
09:00	5.6	5.6	5.6	62	-4.6	0	2	248	0.00	30.470 
09:05	5.8	5.8	5.8	61	-4.7	0	2	248	0.00	30.468 
09:10	5.8	5.8	5.8	60	-5.1	1	3	248	0.00	30.474 
09:15	5.8	5.8	5.8	60	-5.1	1	4	248	0.00	30.476 
09:20	6.3	6.3	6.3	61	-4.2	0	2	248	0.00	30.475 
09:25	6.3	6.3	6.3	59	-4.9	1	2	315	0.00	30.474 
09:30	6.5	6.5	6.5	61	-4.0	0	3	315	0.00	30.474 
09:35	6.5	6.5	6.5	60	-4.4	0	2	248	0.00	30.471 
09:40	6.7	6.7	6.7	60	-4.2	0	2	248	0.00	30.462 
09:45	6.9	6.9	6.9	61	-3.7	0	2	248	0.00	30.463 
09:50	6.9	6.9	6.9	60	-4.0	0	2	248	0.00	30.462 
09:55	7.0	7.0	7.0	59	-4.3	0	2	248	0.00	30.460 
10:00	7.2	7.2	7.2	60	-3.7	0	1	248	0.00	30.461 
10:05	7.4	7.4	7.4	59	-3.9	0	1	248	0.00	30.464 
10:10	7.6	7.6	7.6	60	-3.3	0	1	248	0.00	30.465 
10:15	7.7	7.7	7.7	58	-4.0	0	3	225	0.00	30.460 
10:20	7.9	7.9	7.9	58	-3.8	0	2	225	0.00	30.456 
10:25	8.3	8.3	8.3	58	-3.4	0	1	225	0.00	30.452 
10:30	8.6	8.6	8.6	58	-3.1	0	2	225	0.00	30.448 
10:35	8.6	8.6	8.6	57	-3.5	0	1	225	0.00	30.451 
10:40	9.0	9.0	9.0	57	-3.1	0	2	225	0.00	30.452 
10:45	9.3	9.3	9.3	58	-2.4	0	1	225	0.00	30.452 
10:50	9.5	9.5	9.5	56	-3.0	1	3	248	0.00	30.453 
10:55	9.7	9.7	9.7	55	-3.2	0	3	248	0.00	30.446 
11:00	9.7	9.7	9.7	55	-3.2	0	2	248	0.00	30.446 
11:05	9.7	9.7	9.7	56	-2.8	1	3	90	0.00	30.446 
11:10	9.7	9.7	9.7	54	-3.6	0	2	90	0.00	30.451 
11:15	9.9	9.9	9.9	55	-3.0	0	1	90	0.00	30.456 
11:20	10.0	10.0	10.0	54	-3.3	1	2	90	0.00	30.458 
11:25	10.0	10.0	10.0	55	-2.9	0	1	90	0.00	30.455 
11:30	10.4	10.4	10.4	55	-2.5	0	3	248	0.00	30.454 
11:35	10.4	10.4	10.4	56	-2.2	0	1	248	0.00	30.459 
11:40	10.4	10.4	10.4	54	-2.9	0	3	90	0.00	30.459 
11:45	10.4	10.4	10.4	54	-2.9	1	2	270	0.00	30.460 
11:50	10.5	10.5	10.5	54	-2.8	0	2	270	0.00	30.461 
11:55	10.7	10.7	10.7	57	-1.5	1	3	112	0.00	30.463 
12:00	11.2	11.2	11.2	55	-1.8	0	1	112	0.00	30.468 
12:05	11.6	11.6	11.6	54	-1.8	1	3	225	0.00	30.464 
12:10	11.6	11.6	11.6	53	-2.2	1	4	248	0.00	30.467 
12:15	11.6	11.6	11.6	53	-2.2	1	3	248	0.00	30.458 
12:20	11.6	11.6	11.6	54	-1.8	1	4	248	0.00	30.461 
12:25	11.6	11.6	11.6	54	-1.8	0	3	248	0.00	30.457 
12:30	11.9	11.9	11.9	52	-2.3	0	1	248	0.00	30.454 
12:35	11.9	11.9	11.9	51	-2.7	1	4	248	0.00	30.449 
12:40	12.3	12.3	12.3	53	-1.5	1	3	248	0.00	30.449 
12:45	12.4	12.4	12.4	52	-1.8	0	1	248	0.00	30.442 
12:50	12.6	12.6	12.6	51	-2.1	0	2	248	0.00	30.444 
12:55	12.4	12.4	12.4	51	-2.2	0	2	248	0.00	30.439 
13:00	12.6	12.6	12.6	52	-1.6	1	4	248	0.00	30.439 
13:05	12.9	12.9	12.9	52	-1.4	1	3	248	0.00	30.429 
13:10	13.3	13.3	13.3	50	-1.8	1	3	248	0.00	30.430 
13:15	13.3	13.3	13.3	50	-1.8	0	2	248	0.00	30.433 
13:20	12.9	12.9	12.9	50	-2.2	1	4	112	0.00	30.429 
13:25	12.8	12.8	12.8	51	-1.9	0	3	45	0.00	30.426 
13:30	12.9	12.9	12.9	51	-1.8	0	1	45	0.00	30.425 
13:35	13.3	13.3	13.3	50	-1.8	1	3	45	0.00	30.413 
13:40	13.5	13.5	13.5	53	-0.4	0	2	68	0.00	30.417 
13:45	13.8	13.8	13.8	49	-1.8	0	2	68	0.00	30.407 
13:50	14.1	14.1	14.1	51	-0.7	0	2	68	0.00	30.408 
13:55	14.1	14.1	14.1	49	-1.5	1	4	112	0.00	30.401 
14:00	14.3	14.3	14.3	50	-0.9	0	2	135	0.00	30.399 
14:05	14.1	14.1	14.1	50	-1.1	0	1	338	0.00	30.394 
14:10	13.8	13.8	13.8	48	-2.2	0	1	338	0.00	30.392 
14:15	13.6	13.6	13.6	49	-2.0	1	3	338	0.00	30.391 
14:20	13.5	13.5	13.5	50	-1.6	1	4	90	0.00	30.384 
14:25	13.8	13.8	13.8	53	-0.1	1	5	90	0.00	30.381 
14:30	13.8	13.8	13.8	52	-0.5	2	4	90	0.00	30.377 
14:35	13.5	13.5	13.5	52	-0.8	1	3	90	0.00	30.376 
14:40	13.3	13.3	13.3	50	-1.8	1	4	90	0.00	30.372 
14:45	13.3	13.3	13.3	51	-1.4	0	2	90	0.00	30.369 
14:50	13.5	13.5	13.5	51	-1.2	0	2	90	0.00	30.363 
14:55	13.6	13.6	13.6	52	-0.7	0	3	90	0.00	30.362 
15:00	13.8	13.8	13.8	51	-0.9	0	2	90	0.00	30.364 
15:05	13.8	13.8	13.8	51	-0.9	0	2	90	0.00	30.371 
15:10	13.6	13.6	13.6	53	-0.3	1	5	112	0.00	30.370 
15:15	13.5	13.5	13.5	53	-0.4	1	3	112	0.00	30.366 
15:20	13.5	13.5	13.5	55	0.4	0	2	112	0.00	30.373 
15:25	13.6	13.6	13.6	55	0.5	0	1	112	0.00	30.376 
15:30	13.6	13.6	13.6	57	1.2	1	3	112	0.00	30.376 
15:35	13.5	13.5	13.5	58	1.5	0	2	112	0.00	30.375 
15:40	13.5	13.5	13.5	58	1.5	0	2	112	0.00	30.376 
15:45	13.5	13.5	13.5	56	0.8	0	1	112	0.00	30.377 
15:50	13.5	13.5	13.5	58	1.5	0	1	112	0.00	30.377 
15:55	13.6	13.6	13.6	59	2.0	0	3	112	0.00	30.378 
16:00	13.6	13.6	13.6	60	2.3	0	2	112	0.00	30.377 
16:05	13.5	13.5	13.5	61	2.6	0	2	112	0.00	30.377 
16:10	13.3	13.3	13.3	62	2.7	0	2	112	0.00	30.377 
16:15	13.3	13.3	13.3	64	3.4	0	2	112	0.00	30.375 
16:20	13.3	13.3	13.3	64	3.4	1	2	112	0.00	30.374 
16:25	12.9	12.9	12.9	64	3.1	1	3	112	0.00	30.376 
16:30	12.9	12.9	12.9	65	3.4	0	1	112	0.00	30.373 
16:35	12.8	12.8	12.8	65	3.3	1	4	112	0.00	30.369 
16:40	12.8	12.8	12.8	66	3.6	1	4	135	0.00	30.366 
16:45	12.8	12.8	12.8	66	3.6	1	2	135	0.00	30.362 
16:50	12.8	12.8	12.8	66	3.6	1	3	135	0.00	30.360 
16:55	12.8	12.8	12.8	66	3.6	1	3	135	0.00	30.360 
17:00	12.6	12.6	12.6	66	3.4	1	4	90	0.00	30.363 
17:05	12.8	12.8	12.8	68	4.3	1	3	90	0.00	30.365 
17:10	12.8	12.8	12.8	69	4.6	0	2	112	0.00	30.368 
17:15	12.8	12.8	12.8	70	4.9	1	3	112	0.00	30.364 
17:20	12.8	12.8	12.8	72	5.5	0	1	112	0.00	30.364 
17:25	12.6	12.6	12.6	71	5.0	1	4	90	0.00	30.365 
17:30	12.4	12.4	12.4	69	4.2	2	3	90	0.00	30.371 
17:35	12.4	12.4	12.4	70	4.5	1	3	112	0.00	30.377 
17:40	12.4	12.4	12.4	71	4.8	1	2	112	0.00	30.377 
17:45	12.3	12.3	12.3	70	4.4	1	3	112	0.00	30.374 
17:50	12.4	12.4	12.4	71	4.8	0	2	112	0.00	30.377 
17:55	12.4	12.4	12.4	72	5.1	1	4	90	0.00	30.377 
18:00	12.3	12.3	12.3	73	5.3	1	4	90	0.00	30.377 
18:05	12.3	12.3	12.3	74	5.6	1	3	90	0.00	30.377 
18:10	12.1	12.1	12.1	73	5.1	1	4	90	0.00	30.378 
18:15	12.1	12.1	12.1	75	5.7	1	3	90	0.00	30.378 
18:20	12.1	12.1	12.1	75	5.7	1	3	112	0.00	30.378 
18:25	12.1	12.1	12.1	76	6.0	1	3	135	0.00	30.377 
18:30	12.1	12.1	12.1	77	6.3	1	3	112	0.00	30.375 
18:35	12.3	12.3	12.3	77	6.5	1	2	112	0.00	30.369 
18:40	12.3	12.3	12.3	77	6.5	1	2	112	0.00	30.370 
18:45	12.1	12.1	12.1	78	6.6	1	3	112	0.00	30.369 
18:50	12.1	12.1	12.1	79	6.9	1	2	112	0.00	30.371 
18:55	12.3	12.3	12.3	80	7.3	1	4	112	0.00	30.370 
19:00	12.3	12.3	12.3	80	7.3	1	4	112	0.00	30.369 
19:05	12.1	12.1	12.1	79	6.9	2	4	112	0.00	30.365 
19:10	12.1	12.1	12.1	78	6.6	1	4	112	0.00	30.364 
19:15	11.9	11.9	11.9	78	6.4	1	5	135	0.00	30.363 
19:20	11.9	11.9	11.9	78	6.4	1	3	112	0.00	30.360 
19:25	11.9	11.9	11.9	79	6.7	1	3	112	0.00	30.359 
19:30	11.9	11.9	11.9	80	6.9	2	4	112	0.00	30.355 
19:35	11.9	11.9	11.9	81	7.2	2	5	112	0.00	30.354 
19:40	11.9	11.9	11.9	81	7.2	2	4	90	0.00	30.351 
19:45	11.9	11.9	11.9	81	7.2	2	5	112	0.00	30.348 
19:50	11.7	11.7	11.7	81	7.0	2	4	112	0.00	30.350 
19:55	11.7	11.7	11.7	81	7.0	1	3	112	0.00	30.352 
20:00	11.9	11.9	11.9	81	7.2	2	3	112	0.00	30.355 
20:05	11.9	11.9	11.9	81	7.2	1	3	112	0.00	30.351 
20:10	11.9	11.9	11.9	82	7.5	1	3	90	0.00	30.355 
20:15	11.9	11.9	11.9	82	7.5	1	3	112	0.00	30.355 
20:20	12.1	12.1	12.1	82	7.7	2	4	112	0.00	30.354 
20:25	12.1	12.1	12.1	83	7.9	2	5	90	0.00	30.351 
20:30	12.1	12.1	12.1	82	7.7	2	4	90	0.00	30.347 
20:35	11.9	11.9	11.9	82	7.5	2	5	112	0.00	30.343 
20:40	11.9	11.9	11.9	82	7.5	2	5	112	0.00	30.340 
20:45	12.1	12.1	12.1	83	7.9	1	3	112	0.00	30.335 
20:50	12.1	12.1	12.1	83	7.9	2	5	90	0.00	30.333 
20:55	12.1	12.1	12.1	83	7.9	2	4	90	0.00	30.332 
21:00	12.1	12.1	12.1	83	7.9	2	5	90	0.00	30.331 
21:05	12.1	12.1	12.1	83	7.9	2	5	90	0.00	30.328 
21:10	12.1	12.1	12.1	83	7.9	2	4	112	0.00	30.327 
21:15	12.1	12.1	12.1	83	7.9	2	4	112	0.00	30.326 
21:20	12.1	12.1	12.1	82	7.7	2	5	112	0.00	30.326 
21:25	12.1	12.1	12.1	82	7.7	3	6	112	0.00	30.324 
21:30	12.1	12.1	12.1	82	7.7	3	6	112	0.00	30.317 
21:35	12.3	12.3	12.3	82	7.9	2	6	112	0.00	30.315 
21:40	12.3	12.3	12.3	82	7.9	2	5	90	0.00	30.318 
21:45	12.1	12.1	12.1	82	7.7	2	4	90	0.00	30.314 
21:50	12.1	12.1	12.1	82	7.7	3	7	112	0.00	30.313 
21:55	12.1	12.1	12.1	82	7.7	2	5	90	0.00	30.313 
22:00	12.1	12.1	12.1	81	7.4	3	5	112	0.00	30.313 
22:05	12.1	12.1	12.1	81	7.4	3	6	90	0.00	30.311 
22:10	12.3	12.3	12.3	81	7.6	2	6	112	0.00	30.310 
22:15	12.3	12.3	12.3	82	7.9	1	7	112	0.00	30.309 
22:20	12.4	12.4	12.4	82	8.0	2	7	90	0.00	30.307 
22:25	12.3	12.3	12.3	81	7.6	3	9	112	0.00	30.305 
22:30	12.3	12.3	12.3	81	7.6	2	5	112	0.00	30.306 
22:35	12.4	12.4	12.4	82	8.0	2	4	112	0.00	30.307 
22:40	12.4	12.4	12.4	81	7.7	2	6	112	0.00	30.308 
22:45	12.4	12.4	12.4	81	7.7	3	7	90	0.00	30.318 
22:50	12.4	12.4	12.4	81	7.7	3	6	90	0.00	30.305 
22:55	12.4	12.4	12.4	82	8.0	2	5	112	0.00	30.304 
23:00	12.4	12.4	12.4	82	8.0	2	4	90	0.00	30.304 
23:05	12.4	12.4	12.4	82	8.0	2	4	90	0.00	30.305 
23:10	12.4	12.4	12.4	82	8.0	2	5	90	0.00	30.295 
23:15	12.4	12.4	12.4	82	8.0	2	5	112	0.00	30.294 
23:20	12.6	12.6	12.6	82	8.2	1	4	112	0.00	30.291 
23:25	12.6	12.6	12.6	83	8.4	1	4	112	0.00	30.293 
23:30	12.8	12.8	12.8	83	8.6	2	7	112	0.00	30.291 
23:35	12.8	12.8	12.8	82	8.4	2	6	112	0.00	30.291 
23:40	12.8	12.8	12.8	82	8.4	3	7	90	0.00	30.292 
23:45	12.9	12.9	12.9	82	8.5	2	5	90	0.00	30.289 
23:50	12.8	5.9	12.8	82	8.4	4	7	112	0.00	30.288 
23:55	12.9	12.9	12.9	82	8.5	2	5	90	0.00	30.288 

CoCoRaHS
IN-AL-39
A2 Web Hosting
Creative Commons License
GoDaddy
Look for:

loaded 2017-10-20 19:32:52 • last modified 2010-11-18 10:43:29
Privacy PolicyDisclaimer
• wx.awcolley.com is powered by PmWiki v.2002016 •
• all content (unless otherwise noted) © 2017 A W Colley